Time;durP1;ratioP1;P1;durP2;ratioP2;P2;SDS_P1;SDS_P2;PMS_P1;PMS_P2;Temp;Humidity;BMP_temperature;BMP_pressure;BME280_temperature;BME280_humidity;BME280_pressure;Samples;Min_cycle;Max_cycle;Signal;HPM_P1;HPM_P2
2023/05/03 00:01:47;;;;;;;;;;;;;;;;;;5004960;28;19925;-83
2023/05/03 00:04:34;;;;;;;;;;;;;;;;;;4999680;28;20469;-83
2023/05/03 00:07:21;;;;;;;;;;;;;;;;;;4985228;28;20301;-82
2023/05/03 00:10:09;;;;;;;;;;;;;;;;;;4986249;28;19914;-82
2023/05/03 00:12:55;;;;;;;;;;;;;;;;;;4995385;28;19922;-83
2023/05/03 00:15:42;;;;;;;;;;;;;;;;;;5009052;28;19929;-82
2023/05/03 00:18:29;;;;;;;;;;;;;;;;;;5005148;28;19930;-83
2023/05/03 00:21:16;;;;;;;;;;;;;;;;;;5007772;28;19921;-82
2023/05/03 00:24:02;;;;;;;;;;;;;;;;;;5005874;28;20384;-83
2023/05/03 00:26:49;;;;;;;;;;;;;;;;;;5000085;28;19925;-84
2023/05/03 00:29:35;;;;;;;;;;;;;;;;;;4995219;28;19918;-82
2023/05/03 00:32:22;;;;;;;;;;;;;;;;;;5011370;28;19913;-83
2023/05/03 00:35:09;;;;;;;;;;;;;;;;;;4979506;28;20374;-82
2023/05/03 00:37:55;;;;;;;;;;;;;;;;;;4983534;28;20042;-84
2023/05/03 00:40:42;;;;;;;;;;;;;;;;;;4987757;28;19917;-82
2023/05/03 00:43:28;;;;;;;;;;;;;;;;;;4988660;28;20373;-82
2023/05/03 00:46:15;;;;;;;;;;;;;;;;;;5008708;28;19924;-83
2023/05/03 00:49:04;;;;;;;;;;;;;;;;;;5003345;28;20018;-83
2023/05/03 00:51:51;;;;;;;;;;;;;;;;;;5002485;28;20359;-83
2023/05/03 00:54:37;;;;;;;;;;;;;;;;;;5004245;28;20391;-81
2023/05/03 00:57:24;;;;;;;;;;;;;;;;;;4997453;28;20381;-82
2023/05/03 01:00:12;;;;;;;;;;;;;;;;;;5017744;28;20483;-81
2023/05/03 01:02:58;;;;;;;;;;;;;;;;;;5004399;28;19921;-82
2023/05/03 01:05:45;;;;;;;;;;;;;;;;;;5004884;28;19914;-82
2023/05/03 01:08:31;;;;;;;;;;;;;;;;;;4996320;28;19914;-82
2023/05/03 01:11:18;;;;;;;;;;;;;;;;;;5005782;28;19917;-82
2023/05/03 01:14:05;;;;;;;;;;;;;;;;;;5002194;28;19930;-83
2023/05/03 01:16:53;;;;;;;;;;;;;;;;;;5008113;28;19922;-83
2023/05/03 01:19:39;;;;;;;;;;;;;;;;;;5005624;28;19952;-83
2023/05/03 01:22:26;;;;;;;;;;;;;;;;;;4999055;28;19932;-82
2023/05/03 01:25:13;;;;;;;;;;;;;;;;;;4998397;28;19925;-82
2023/05/03 01:28:00;;;;;;;;;;;;;;;;;;5002275;28;19929;-82
2023/05/03 01:30:46;;;;;;;;;;;;;;;;;;4998232;28;19918;-82
2023/05/03 01:33:33;;;;;;;;;;;;;;;;;;4990773;28;19929;-83
2023/05/03 01:36:19;;;;;;;;;;;;;;;;;;5003752;28;19921;-83
2023/05/03 01:39:06;;;;;;;;;;;;;;;;;;4994799;28;19925;-84
2023/05/03 01:41:52;;;;;;;;;;;;;;;;;;5000855;28;19928;-84
2023/05/03 01:44:39;;;;;;;;;;;;;;;;;;5005248;28;19913;-83
2023/05/03 01:47:26;;;;;;;;;;;;;;;;;;5003277;28;19920;-83
2023/05/03 01:50:12;;;;;;;;;;;;;;;;;;5015959;28;20339;-83
2023/05/03 01:52:59;;;;;;;;;;;;;;;;;;4998855;28;20299;-84
2023/05/03 01:55:45;;;;;;;;;;;;;;;;;;5006292;28;19928;-84
2023/05/03 01:58:32;;;;;;;;;;;;;;;;;;5014154;28;20424;-84
2023/05/03 02:01:18;;;;;;;;;;;;;;;;;;4994958;28;19924;-83
2023/05/03 02:04:05;;;;;;;;;;;;;;;;;;5000395;28;19917;-83
2023/05/03 02:06:51;;;;;;;;;;;;;;;;;;4998338;28;19948;-83
2023/05/03 02:09:38;;;;;;;;;;;;;;;;;;5005811;28;19921;-82
2023/05/03 02:12:24;;;;;;;;;;;;;;;;;;4997898;28;19947;-82
2023/05/03 02:15:11;;;;;;;;;;;;;;;;;;5002237;28;19930;-83
2023/05/03 02:17:57;;;;;;;;;;;;;;;;;;4998859;28;19952;-83
2023/05/03 02:20:44;;;;;;;;;;;;;;;;;;5004331;28;19924;-82
2023/05/03 02:23:30;;;;;;;;;;;;;;;;;;4997963;28;19923;-83
2023/05/03 02:26:17;;;;;;;;;;;;;;;;;;4974406;28;20581;-83
2023/05/03 02:29:03;;;;;;;;;;;;;;;;;;4986661;28;19928;-83
2023/05/03 02:31:50;;;;;;;;;;;;;;;;;;4998625;28;19918;-84
2023/05/03 02:34:36;;;;;;;;;;;;;;;;;;5003287;28;19975;-84
2023/05/03 02:37:23;;;;;;;;;;;;;;;;;;4994634;28;19913;-83
2023/05/03 02:40:09;;;;;;;;;;;;;;;;;;5000569;28;19913;-82
2023/05/03 02:42:56;;;;;;;;;;;;;;;;;;5007666;28;19913;-83
2023/05/03 02:45:42;;;;;;;;;;;;;;;;;;5030187;28;19917;-83
2023/05/03 02:48:29;;;;;;;;;;;;;;;;;;5007880;28;19918;-83
2023/05/03 02:51:15;;;;;;;;;;;;;;;;;;4993856;28;19913;-83
2023/05/03 02:54:02;;;;;;;;;;;;;;;;;;5006812;28;20377;-84
2023/05/03 02:56:48;;;;;;;;;;;;;;;;;;4998520;28;20392;-83
2023/05/03 02:59:35;;;;;;;;;;;;;;;;;;4993174;28;19925;-83
2023/05/03 03:02:22;;;;;;;;;;;;;;;;;;5000258;28;19928;-84
2023/05/03 03:05:08;;;;;;;;;;;;;;;;;;5008452;28;19929;-82
2023/05/03 03:07:55;;;;;;;;;;;;;;;;;;5003522;28;19929;-83
2023/05/03 03:10:41;;;;;;;;;;;;;;;;;;5005670;28;19924;-84
2023/05/03 03:13:28;;;;;;;;;;;;;;;;;;4986759;28;19932;-84
2023/05/03 03:16:14;;;;;;;;;;;;;;;;;;4993128;28;19918;-83
2023/05/03 03:19:01;;;;;;;;;;;;;;;;;;4993031;28;20499;-84
2023/05/03 03:21:47;;;;;;;;;;;;;;;;;;4987161;28;20296;-83
2023/05/03 03:24:34;;;;;;;;;;;;;;;;;;5004175;28;19929;-83
2023/05/03 03:27:22;;;;;;;;;;;;;;;;;;5016892;28;19919;-83
2023/05/03 03:30:10;;;;;;;;;;;;;;;;;;5005493;28;19925;-83
2023/05/03 03:32:57;;;;;;;;;;;;;;;;;;5003257;28;19922;-83
2023/05/03 03:35:43;;;;;;;;;;;;;;;;;;5003986;28;19925;-84
2023/05/03 03:38:29;;;;;;;;;;;;;;;;;;4987867;28;19924;-84
2023/05/03 03:41:16;;;;;;;;;;;;;;;;;;4987927;28;19914;-85
2023/05/03 03:44:02;;;;;;;;;;;;;;;;;;4995325;28;19929;-84
2023/05/03 03:46:49;;;;;;;;;;;;;;;;;;5005199;28;19924;-84
2023/05/03 03:49:36;;;;;;;;;;;;;;;;;;4993586;28;19918;-85
2023/05/03 03:52:22;;;;;;;;;;;;;;;;;;4983075;28;19920;-84
2023/05/03 03:55:09;;;;;;;;;;;;;;;;;;4986114;28;19934;-84
2023/05/03 03:57:55;;;;;;;;;;;;;;;;;;4986843;28;19914;-83
2023/05/03 04:00:42;;;;;;;;;;;;;;;;;;4975365;28;19926;-86
2023/05/03 04:03:28;;;;;;;;;;;;;;;;;;5006695;28;20361;-84
2023/05/03 04:06:15;;;;;;;;;;;;;;;;;;5002939;28;20435;-84
2023/05/03 04:09:01;;;;;;;;;;;;;;;;;;5002846;28;20334;-82
2023/05/03 04:11:48;;;;;;;;;;;;;;;;;;5004942;28;19929;-86
2023/05/03 04:14:34;;;;;;;;;;;;;;;;;;5003516;28;20280;-87
2023/05/03 04:17:21;;;;;;;;;;;;;;;;;;5014128;28;19917;-87
2023/05/03 04:20:09;;;;;;;;;;;;;;;;;;5006479;28;19933;-87
2023/05/03 04:22:56;;;;;;;;;;;;;;;;;;4993662;28;20298;-88
2023/05/03 04:25:45;;;;;;;;;;;;;;;;;;5008613;28;19925;-87
2023/05/03 04:28:32;;;;;;;;;;;;;;;;;;4978360;28;20466;-87
2023/05/03 04:31:20;;;;;;;;;;;;;;;;;;5016471;28;19939;-86
2023/05/03 04:34:09;;;;;;;;;;;;;;;;;;5005147;28;20017;-86
2023/05/03 04:36:55;;;;;;;;;;;;;;;;;;4984715;28;19918;-87
2023/05/03 04:39:42;;;;;;;;;;;;;;;;;;5005703;28;19917;-87
2023/05/03 04:42:29;;;;;;;;;;;;;;;;;;4996773;28;19913;-87
2023/05/03 04:45:17;;;;;;;;;;;;;;;;;;5010935;28;19913;-87
2023/05/03 04:48:04;;;;;;;;;;;;;;;;;;5007943;28;19925;-87
2023/05/03 04:50:51;;;;;;;;;;;;;;;;;;5010471;28;19943;-87
2023/05/03 04:53:37;;;;;;;;;;;;;;;;;;5007090;28;19948;-87
2023/05/03 04:56:28;;;;;;;;;;;;;;;;;;5006212;28;19921;-87
2023/05/03 04:59:15;;;;;;;;;;;;;;;;;;4995872;28;19921;-87
2023/05/03 05:02:01;;;;;;;;;;;;;;;;;;5005030;28;20262;-87
2023/05/03 05:04:47;;;;;;;;;;;;;;;;;;5005576;28;19920;-87
2023/05/03 05:07:34;;;;;;;;;;;;;;;;;;5005655;28;19917;-87
2023/05/03 05:10:20;;;;;;;;;;;;;;;;;;5005230;28;20471;-87
2023/05/03 05:13:07;;;;;;;;;;;;;;;;;;5005281;28;19922;-88
2023/05/03 05:15:54;;;;;;;;;;;;;;;;;;5005172;28;19945;-88
2023/05/03 05:18:41;;;;;;;;;;;;;;;;;;5006194;28;19939;-87
2023/05/03 05:21:27;;;;;;;;;;;;;;;;;;4992795;28;19920;-87
2023/05/03 05:24:14;;;;;;;;;;;;;;;;;;4973488;28;19925;-88
2023/05/03 05:27:00;;;;;;;;;;;;;;;;;;4988544;28;19921;-87
2023/05/03 05:29:47;;;;;;;;;;;;;;;;;;5006507;28;19951;-88
2023/05/03 05:32:33;;;;;;;;;;;;;;;;;;5001087;28;19917;-88
2023/05/03 05:35:20;;;;;;;;;;;;;;;;;;4986675;28;19956;-88
2023/05/03 05:38:06;;;;;;;;;;;;;;;;;;4976352;28;19937;-88
2023/05/03 05:40:53;;;;;;;;;;;;;;;;;;4984319;28;19922;-88
2023/05/03 05:43:39;;;;;;;;;;;;;;;;;;4976367;28;19921;-87
2023/05/03 05:46:26;;;;;;;;;;;;;;;;;;4988126;28;19936;-87
2023/05/03 05:49:12;;;;;;;;;;;;;;;;;;5003312;28;20230;-86
2023/05/03 05:51:59;;;;;;;;;;;;;;;;;;5003688;28;19924;-87
2023/05/03 05:54:45;;;;;;;;;;;;;;;;;;5017957;28;19948;-88
2023/05/03 05:57:32;;;;;;;;;;;;;;;;;;4995347;28;19928;-86
2023/05/03 06:00:20;;;;;;;;;;;;;;;;;;5005279;28;19924;-86
2023/05/03 06:03:06;;;;;;;;;;;;;;;;;;5002182;28;20586;-86
2023/05/03 06:05:53;;;;;;;;;;;;;;;;;;5004106;28;19925;-88
2023/05/03 06:08:39;;;;;;;;;;;;;;;;;;5001978;28;19925;-87
2023/05/03 06:11:26;;;;;;;;;;;;;;;;;;4998267;28;19925;-87
2023/05/03 06:14:12;;;;;;;;;;;;;;;;;;4974101;28;19928;-87
2023/05/03 06:16:59;;;;;;;;;;;;;;;;;;4981103;28;19924;-86
2023/05/03 06:19:48;;;;;;;;;;;;;;;;;;4990161;28;20391;-86
2023/05/03 06:22:34;;;;;;;;;;;;;;;;;;5005195;28;19923;-87
2023/05/03 06:25:21;;;;;;;;;;;;;;;;;;4988124;28;19914;-88
2023/05/03 06:28:07;;;;;;;;;;;;;;;;;;5003510;28;19922;-88
2023/05/03 06:30:54;;;;;;;;;;;;;;;;;;4990236;28;19924;-87
2023/05/03 06:33:40;;;;;;;;;;;;;;;;;;4979572;28;20053;-86
2023/05/03 06:36:28;;;;;;;;;;;;;;;;;;5010926;28;19917;-87
2023/05/03 06:39:15;;;;;;;;;;;;;;;;;;5008035;28;19913;-87
2023/05/03 06:42:02;;;;;;;;;;;;;;;;;;4998894;28;19917;-87
2023/05/03 06:44:48;;;;;;;;;;;;;;;;;;4997361;28;20341;-87
2023/05/03 06:47:35;;;;;;;;;;;;;;;;;;5004803;28;19925;-86
2023/05/03 06:50:23;;;;;;;;;;;;;;;;;;5009906;28;19972;-87
2023/05/03 06:53:09;;;;;;;;;;;;;;;;;;5003874;28;20288;-87
2023/05/03 06:55:56;;;;;;;;;;;;;;;;;;5004525;28;19933;-86
2023/05/03 06:58:42;;;;;;;;;;;;;;;;;;5005281;28;19924;-87
2023/05/03 07:01:29;;;;;;;;;;;;;;;;;;4989495;28;20912;-86
2023/05/03 07:04:15;;;;;;;;;;;;;;;;;;4992828;28;19918;-86
2023/05/03 07:07:02;;;;;;;;;;;;;;;;;;4997338;28;19921;-87
2023/05/03 07:09:48;;;;;;;;;;;;;;;;;;5012627;28;20428;-85
2023/05/03 07:12:35;;;;;;;;;;;;;;;;;;4993167;28;19928;-86
2023/05/03 07:15:21;;;;;;;;;;;;;;;;;;5003034;28;19936;-85
2023/05/03 07:18:11;;;;;;;;;;;;;;;;;;4987637;28;19930;-85
2023/05/03 07:20:57;;;;;;;;;;;;;;;;;;5004219;28;20426;-87
2023/05/03 07:23:44;;;;;;;;;;;;;;;;;;5005506;28;19929;-86
2023/05/03 07:26:30;;;;;;;;;;;;;;;;;;4999679;28;19924;-87
2023/05/03 07:29:17;;;;;;;;;;;;;;;;;;4985878;28;19913;-86
2023/05/03 07:32:03;;;;;;;;;;;;;;;;;;5014091;28;19918;-87
2023/05/03 07:34:50;;;;;;;;;;;;;;;;;;4986660;28;19932;-88
2023/05/03 07:37:37;;;;;;;;;;;;;;;;;;5004300;28;20005;-86
2023/05/03 07:40:23;;;;;;;;;;;;;;;;;;4976230;28;20363;-87
2023/05/03 07:43:10;;;;;;;;;;;;;;;;;;4997962;28;19925;-86
2023/05/03 07:45:57;;;;;;;;;;;;;;;;;;5008130;28;20360;-85
2023/05/03 07:48:43;;;;;;;;;;;;;;;;;;5006778;28;19927;-86
2023/05/03 07:51:30;;;;;;;;;;;;;;;;;;4985678;28;19921;-86
2023/05/03 07:54:17;;;;;;;;;;;;;;;;;;4989780;28;19921;-86
2023/05/03 07:57:05;;;;;;;;;;;;;;;;;;4987135;28;20300;-86
2023/05/03 07:59:51;;;;;;;;;;;;;;;;;;4999499;28;19924;-86
2023/05/03 08:02:38;;;;;;;;;;;;;;;;;;4999194;28;19993;-88
2023/05/03 08:05:24;;;;;;;;;;;;;;;;;;5005145;28;19920;-87
2023/05/03 08:08:12;;;;;;;;;;;;;;;;;;5009671;28;19917;-87
2023/05/03 08:10:59;;;;;;;;;;;;;;;;;;5006972;28;19917;-85
2023/05/03 08:13:45;;;;;;;;;;;;;;;;;;5009230;28;19914;-86
2023/05/03 08:16:32;;;;;;;;;;;;;;;;;;5008591;28;19928;-86
2023/05/03 08:19:18;;;;;;;;;;;;;;;;;;5008982;28;19930;-87
2023/05/03 08:22:06;;;;;;;;;;;;;;;;;;4999683;28;20273;-86
2023/05/03 08:24:55;;;;;;;;;;;;;;;;;;5012539;28;19922;-86
2023/05/03 08:27:41;;;;;;;;;;;;;;;;;;5005259;28;19917;-86
2023/05/03 08:30:29;;;;;;;;;;;;;;;;;;4996979;28;20377;-86
2023/05/03 08:33:15;;;;;;;;;;;;;;;;;;5006818;28;19914;-86
2023/05/03 08:36:02;;;;;;;;;;;;;;;;;;5002747;28;19948;-85
2023/05/03 08:38:49;;;;;;;;;;;;;;;;;;5004170;28;19917;-85
2023/05/03 08:41:35;;;;;;;;;;;;;;;;;;4997381;28;19917;-86
2023/05/03 08:44:22;;;;;;;;;;;;;;;;;;4996179;28;20391;-86
2023/05/03 08:47:08;;;;;;;;;;;;;;;;;;5005304;28;19924;-86
2023/05/03 08:49:55;;;;;;;;;;;;;;;;;;4996114;28;19917;-86
2023/05/03 08:52:41;;;;;;;;;;;;;;;;;;5009149;28;19924;-86
2023/05/03 08:55:28;;;;;;;;;;;;;;;;;;5006718;28;19933;-85
2023/05/03 08:58:17;;;;;;;;;;;;;;;;;;5008737;28;19914;-86
2023/05/03 09:01:05;;;;;;;;;;;;;;;;;;5005456;28;20270;-87
2023/05/03 09:03:51;;;;;;;;;;;;;;;;;;5006550;28;19917;-85
2023/05/03 09:06:38;;;;;;;;;;;;;;;;;;5005967;28;20042;-86
2023/05/03 09:09:24;;;;;;;;;;;;;;;;;;5005026;28;19924;-86
2023/05/03 09:12:11;;;;;;;;;;;;;;;;;;5014573;28;19914;-86
2023/05/03 09:14:57;;;;;;;;;;;;;;;;;;5009366;28;20381;-86
2023/05/03 09:17:44;;;;;;;;;;;;;;;;;;5001998;28;19925;-87
2023/05/03 09:20:30;;;;;;;;;;;;;;;;;;4992951;28;19914;-87
2023/05/03 09:23:17;;;;;;;;;;;;;;;;;;5011417;28;20294;-87
2023/05/03 09:26:05;;;;;;;;;;;;;;;;;;5006361;28;19925;-86
2023/05/03 09:28:52;;;;;;;;;;;;;;;;;;5004643;28;19922;-84
2023/05/03 09:31:38;;;;;;;;;;;;;;;;;;4998242;28;19922;-86
2023/05/03 09:34:25;;;;;;;;;;;;;;;;;;4992717;28;19936;-86
2023/05/03 09:37:14;;;;;;;;;;;;;;;;;;5005875;28;19921;-86
2023/05/03 09:40:01;;;;;;;;;;;;;;;;;;5004543;28;20288;-86
2023/05/03 09:42:47;;;;;;;;;;;;;;;;;;4995257;28;19917;-85
2023/05/03 09:45:34;;;;;;;;;;;;;;;;;;4991661;28;19940;-87
2023/05/03 09:48:22;;;;;;;;;;;;;;;;;;4985777;28;19922;-86
2023/05/03 09:51:08;;;;;;;;;;;;;;;;;;4976991;28;19917;-86
2023/05/03 09:53:55;;;;;;;;;;;;;;;;;;4982853;28;20452;-86
2023/05/03 09:56:41;;;;;;;;;;;;;;;;;;4984700;28;19924;-86
2023/05/03 09:59:28;;;;;;;;;;;;;;;;;;4985108;28;20857;-86
2023/05/03 10:02:15;;;;;;;;;;;;;;;;;;4983370;28;19914;-85
2023/05/03 10:05:01;;;;;;;;;;;;;;;;;;4989892;28;20238;-86
2023/05/03 10:07:48;;;;;;;;;;;;;;;;;;5007398;28;19917;-88
2023/05/03 10:10:34;;;;;;;;;;;;;;;;;;4985434;28;19922;-86
2023/05/03 10:13:21;;;;;;;;;;;;;;;;;;5001508;28;19921;-86
2023/05/03 10:16:11;;;;;;;;;;;;;;;;;;5004794;28;19922;-87
2023/05/03 10:18:57;;;;;;;;;;;;;;;;;;5004784;28;19930;-86
2023/05/03 10:21:44;;;;;;;;;;;;;;;;;;5001570;28;19928;-85
2023/05/03 10:24:31;;;;;;;;;;;;;;;;;;4998671;28;19929;-86
2023/05/03 10:27:17;;;;;;;;;;;;;;;;;;5001113;28;19913;-86
2023/05/03 10:30:04;;;;;;;;;;;;;;;;;;4980298;28;20005;-86
2023/05/03 10:32:51;;;;;;;;;;;;;;;;;;4983221;28;20381;-85
2023/05/03 10:35:37;;;;;;;;;;;;;;;;;;5017703;28;19925;-87
2023/05/03 10:38:24;;;;;;;;;;;;;;;;;;5004674;28;19921;-86
2023/05/03 10:41:11;;;;;;;;;;;;;;;;;;4991003;28;19913;-85
2023/05/03 10:43:57;;;;;;;;;;;;;;;;;;4992411;28;19921;-87
2023/05/03 10:46:44;;;;;;;;;;;;;;;;;;4994644;28;19918;-87
2023/05/03 10:49:31;;;;;;;;;;;;;;;;;;4997245;28;19918;-86
2023/05/03 10:52:17;;;;;;;;;;;;;;;;;;5003975;28;19922;-87
2023/05/03 10:55:04;;;;;;;;;;;;;;;;;;5013027;28;20521;-87
2023/05/03 10:57:52;;;;;;;;;;;;;;;;;;4999901;28;19920;-87
2023/05/03 11:00:40;;;;;;;;;;;;;;;;;;4983103;28;19917;-85
2023/05/03 11:03:26;;;;;;;;;;;;;;;;;;5006899;28;19924;-86
2023/05/03 11:06:13;;;;;;;;;;;;;;;;;;4987999;28;19989;-86
2023/05/03 11:08:59;;;;;;;;;;;;;;;;;;4989168;28;19917;-86
2023/05/03 11:11:46;;;;;;;;;;;;;;;;;;5010418;28;20300;-86
2023/05/03 11:14:32;;;;;;;;;;;;;;;;;;5004993;28;19925;-86
2023/05/03 11:17:20;;;;;;;;;;;;;;;;;;4992831;28;20445;-85
2023/05/03 11:20:09;;;;;;;;;;;;;;;;;;4992503;28;19929;-86
2023/05/03 11:22:56;;;;;;;;;;;;;;;;;;5003199;28;19924;-86
2023/05/03 11:25:42;;;;;;;;;;;;;;;;;;5002576;28;19921;-86
2023/05/03 11:28:29;;;;;;;;;;;;;;;;;;5005561;28;19921;-86
2023/05/03 11:31:15;;;;;;;;;;;;;;;;;;4992256;28;19914;-85
2023/05/03 11:34:02;;;;;;;;;;;;;;;;;;4993280;28;19918;-86
2023/05/03 11:36:49;;;;;;;;;;;;;;;;;;5016052;28;19948;-85
2023/05/03 11:39:35;;;;;;;;;;;;;;;;;;4992524;28;19918;-85
2023/05/03 11:42:24;;;;;;;;;;;;;;;;;;4988939;28;19918;-85
2023/05/03 11:45:11;;;;;;;;;;;;;;;;;;4974120;28;21374;-85
2023/05/03 11:47:58;;;;;;;;;;;;;;;;;;4980244;28;19944;-86
2023/05/03 11:50:45;;;;;;;;;;;;;;;;;;4983750;28;19922;-86
2023/05/03 11:53:31;;;;;;;;;;;;;;;;;;4994588;28;20385;-86
2023/05/03 11:56:19;;;;;;;;;;;;;;;;;;5005793;28;19928;-86
2023/05/03 11:59:06;;;;;;;;;;;;;;;;;;5002676;28;19928;-87
2023/05/03 12:01:52;;;;;;;;;;;;;;;;;;4993873;28;19917;-87
2023/05/03 12:04:40;;;;;;;;;;;;;;;;;;5010166;28;19917;-86
2023/05/03 12:07:26;;;;;;;;;;;;;;;;;;5009750;28;19917;-86
2023/05/03 12:10:13;;;;;;;;;;;;;;;;;;5014023;28;20413;-86
2023/05/03 12:12:59;;;;;;;;;;;;;;;;;;5005027;28;19925;-87
2023/05/03 12:15:46;;;;;;;;;;;;;;;;;;4997494;28;19936;-86
2023/05/03 12:18:32;;;;;;;;;;;;;;;;;;5004892;28;20673;-86
2023/05/03 12:21:19;;;;;;;;;;;;;;;;;;5004239;28;19932;-87
2023/05/03 12:24:05;;;;;;;;;;;;;;;;;;5006813;28;19919;-85
2023/05/03 12:26:52;;;;;;;;;;;;;;;;;;4989598;28;19917;-85
2023/05/03 12:29:38;;;;;;;;;;;;;;;;;;5007542;28;19924;-86
2023/05/03 12:32:25;;;;;;;;;;;;;;;;;;4996972;28;19913;-86
2023/05/03 12:35:11;;;;;;;;;;;;;;;;;;5007717;28;19929;-86
2023/05/03 12:37:58;;;;;;;;;;;;;;;;;;5011789;28;20372;-87
2023/05/03 12:40:45;;;;;;;;;;;;;;;;;;5007390;28;20321;-87
2023/05/03 12:43:32;;;;;;;;;;;;;;;;;;5004691;28;19924;-85
2023/05/03 12:46:18;;;;;;;;;;;;;;;;;;4991888;28;19940;-85
2023/05/03 12:49:05;;;;;;;;;;;;;;;;;;4997220;28;19917;-85
2023/05/03 12:51:52;;;;;;;;;;;;;;;;;;5003781;28;19917;-84
2023/05/03 12:54:38;;;;;;;;;;;;;;;;;;4998019;28;20392;-86
2023/05/03 12:57:25;;;;;;;;;;;;;;;;;;4996710;28;19925;-86
2023/05/03 13:00:12;;;;;;;;;;;;;;;;;;5003112;28;20368;-86
2023/05/03 13:02:58;;;;;;;;;;;;;;;;;;4997862;28;19921;-86
2023/05/03 13:05:45;;;;;;;;;;;;;;;;;;5004926;28;19922;-86
2023/05/03 13:08:32;;;;;;;;;;;;;;;;;;4997246;28;19924;-86
2023/05/03 13:11:18;;;;;;;;;;;;;;;;;;5003768;28;19928;-85
2023/05/03 13:14:06;;;;;;;;;;;;;;;;;;4980015;28;20399;-85
2023/05/03 13:16:53;;;;;;;;;;;;;;;;;;4991003;28;19930;-86
2023/05/03 13:19:39;;;;;;;;;;;;;;;;;;4989665;28;19939;-86
2023/05/03 13:22:26;;;;;;;;;;;;;;;;;;5006297;28;20356;-86
2023/05/03 13:25:13;;;;;;;;;;;;;;;;;;5002915;28;19917;-85
2023/05/03 13:28:00;;;;;;;;;;;;;;;;;;4995677;28;19927;-87
2023/05/03 13:30:46;;;;;;;;;;;;;;;;;;5008667;28;20289;-86
2023/05/03 13:33:36;;;;;;;;;;;;;;;;;;4983387;28;19913;-86
2023/05/03 13:36:23;;;;;;;;;;;;;;;;;;4993505;28;19925;-85
2023/05/03 13:39:09;;;;;;;;;;;;;;;;;;4998126;28;19917;-86
2023/05/03 13:41:56;;;;;;;;;;;;;;;;;;5000923;28;19925;-85
2023/05/03 13:44:42;;;;;;;;;;;;;;;;;;5000610;28;19929;-85
2023/05/03 13:47:30;;;;;;;;;;;;;;;;;;5002221;28;20270;-85
2023/05/03 13:50:16;;;;;;;;;;;;;;;;;;5001958;28;19929;-85
2023/05/03 13:53:03;;;;;;;;;;;;;;;;;;5000660;28;19936;-84
2023/05/03 13:55:49;;;;;;;;;;;;;;;;;;5004279;28;19944;-85
2023/05/03 13:58:37;;;;;;;;;;;;;;;;;;5002877;28;19920;-86
2023/05/03 14:01:24;;;;;;;;;;;;;;;;;;5006812;28;19921;-85
2023/05/03 14:04:11;;;;;;;;;;;;;;;;;;4999677;28;19925;-85
2023/05/03 14:07:01;;;;;;;;;;;;;;;;;;4991666;28;19921;-87
2023/05/03 14:09:47;;;;;;;;;;;;;;;;;;5003333;28;20497;-85
2023/05/03 14:12:35;;;;;;;;;;;;;;;;;;4999309;28;19928;-85
2023/05/03 14:15:22;;;;;;;;;;;;;;;;;;5000858;28;19934;-85
2023/05/03 14:18:08;;;;;;;;;;;;;;;;;;5004010;28;20420;-85
2023/05/03 14:20:55;;;;;;;;;;;;;;;;;;4997236;28;20163;-85
2023/05/03 14:23:43;;;;;;;;;;;;;;;;;;5002188;28;19918;-85
2023/05/03 14:26:32;;;;;;;;;;;;;;;;;;4997901;28;19925;-85
2023/05/03 14:29:19;;;;;;;;;;;;;;;;;;5006050;28;19933;-85
2023/05/03 14:32:05;;;;;;;;;;;;;;;;;;5002623;28;20036;-85
2023/05/03 14:34:52;;;;;;;;;;;;;;;;;;5004836;28;19940;-86
2023/05/03 14:37:38;;;;;;;;;;;;;;;;;;5006951;28;19929;-85
2023/05/03 14:40:25;;;;;;;;;;;;;;;;;;5008650;28;20384;-85
2023/05/03 14:43:11;;;;;;;;;;;;;;;;;;4999535;28;19948;-85
2023/05/03 14:45:58;;;;;;;;;;;;;;;;;;5003535;28;19921;-85
2023/05/03 14:48:44;;;;;;;;;;;;;;;;;;5009437;28;19913;-85
2023/05/03 14:51:31;;;;;;;;;;;;;;;;;;5007961;28;19940;-84
2023/05/03 14:54:18;;;;;;;;;;;;;;;;;;5008351;28;19923;-85
2023/05/03 14:57:07;;;;;;;;;;;;;;;;;;5001309;28;19933;-85
2023/05/03 14:59:54;;;;;;;;;;;;;;;;;;5006705;28;20278;-85
2023/05/03 15:02:40;;;;;;;;;;;;;;;;;;5005400;28;19920;-85
2023/05/03 15:05:27;;;;;;;;;;;;;;;;;;4991631;28;19918;-85
2023/05/03 15:08:14;;;;;;;;;;;;;;;;;;5004467;28;19918;-85
2023/05/03 15:11:00;;;;;;;;;;;;;;;;;;5002673;28;19918;-85
2023/05/03 15:13:47;;;;;;;;;;;;;;;;;;4979021;28;19914;-85
2023/05/03 15:16:33;;;;;;;;;;;;;;;;;;5002465;28;19929;-86
2023/05/03 15:19:20;;;;;;;;;;;;;;;;;;5014005;28;20410;-85
2023/05/03 15:22:06;;;;;;;;;;;;;;;;;;5010035;28;19928;-84
2023/05/03 15:24:53;;;;;;;;;;;;;;;;;;5014072;28;19924;-85
2023/05/03 15:27:39;;;;;;;;;;;;;;;;;;5004516;28;19914;-85
2023/05/03 15:30:27;;;;;;;;;;;;;;;;;;4997585;28;19987;-85
2023/05/03 15:33:13;;;;;;;;;;;;;;;;;;5002512;28;19924;-85
2023/05/03 15:36:00;;;;;;;;;;;;;;;;;;4991148;28;19928;-87
2023/05/03 15:38:46;;;;;;;;;;;;;;;;;;5005127;28;20319;-85
2023/05/03 15:41:33;;;;;;;;;;;;;;;;;;4997907;28;20298;-89
2023/05/03 15:44:19;;;;;;;;;;;;;;;;;;5015384;28;20296;-88
2023/05/03 15:47:06;;;;;;;;;;;;;;;;;;5008924;28;19921;-88
2023/05/03 15:49:53;;;;;;;;;;;;;;;;;;5007012;28;19921;-87
2023/05/03 15:52:41;;;;;;;;;;;;;;;;;;5000368;28;19928;-87
2023/05/03 15:55:27;;;;;;;;;;;;;;;;;;5001719;28;19925;-87
2023/05/03 15:58:14;;;;;;;;;;;;;;;;;;4996448;28;20378;-85
2023/05/03 16:01:00;;;;;;;;;;;;;;;;;;5005927;28;19931;-86
2023/05/03 16:03:47;;;;;;;;;;;;;;;;;;5001507;28;19914;-86
2023/05/03 16:06:33;;;;;;;;;;;;;;;;;;4997102;28;19922;-85
2023/05/03 16:09:20;;;;;;;;;;;;;;;;;;5001919;28;19917;-86
2023/05/03 16:12:06;;;;;;;;;;;;;;;;;;5015126;28;19927;-86
2023/05/03 16:14:54;;;;;;;;;;;;;;;;;;4995217;28;19924;-86
2023/05/03 16:17:40;;;;;;;;;;;;;;;;;;5005607;28;19921;-86
2023/05/03 16:20:27;;;;;;;;;;;;;;;;;;5001957;28;19928;-86
2023/05/03 16:23:13;;;;;;;;;;;;;;;;;;5002042;28;19961;-85
2023/05/03 16:26:00;;;;;;;;;;;;;;;;;;5001539;28;19928;-86
2023/05/03 16:28:46;;;;;;;;;;;;;;;;;;5007076;28;19914;-86
2023/05/03 16:31:33;;;;;;;;;;;;;;;;;;5001927;28;19929;-86
2023/05/03 16:34:20;;;;;;;;;;;;;;;;;;5012415;28;19913;-86
2023/05/03 16:37:06;;;;;;;;;;;;;;;;;;5004260;28;20423;-86
2023/05/03 16:39:53;;;;;;;;;;;;;;;;;;5009838;28;19939;-86
2023/05/03 16:42:40;;;;;;;;;;;;;;;;;;5016894;28;19924;-87
2023/05/03 16:45:27;;;;;;;;;;;;;;;;;;5016044;28;19940;-86
2023/05/03 16:48:14;;;;;;;;;;;;;;;;;;5011752;28;19917;-87
2023/05/03 16:51:01;;;;;;;;;;;;;;;;;;4996352;28;20388;-81
2023/05/03 16:53:47;;;;;;;;;;;;;;;;;;4999354;28;19941;-79
2023/05/03 16:56:34;;;;;;;;;;;;;;;;;;5001280;28;19981;-79
2023/05/03 16:59:20;;;;;;;;;;;;;;;;;;4996503;28;19934;-83
2023/05/03 17:02:07;;;;;;;;;;;;;;;;;;5005228;28;20504;-82
2023/05/03 17:04:53;;;;;;;;;;;;;;;;;;5003116;28;19928;-83
2023/05/03 17:07:40;;;;;;;;;;;;;;;;;;5016346;28;19917;-83
2023/05/03 17:10:27;;;;;;;;;;;;;;;;;;4986879;28;20242;-85
2023/05/03 17:13:15;;;;;;;;;;;;;;;;;;4983343;28;20777;-86
2023/05/03 17:16:01;;;;;;;;;;;;;;;;;;4992173;28;20419;-86
2023/05/03 17:18:48;;;;;;;;;;;;;;;;;;5010319;28;19928;-85
2023/05/03 17:21:34;;;;;;;;;;;;;;;;;;4997582;28;19924;-84
2023/05/03 17:24:21;;;;;;;;;;;;;;;;;;4999752;28;20764;-85
2023/05/03 17:27:07;;;;;;;;;;;;;;;;;;5005824;28;19918;-85
2023/05/03 17:29:56;;;;;;;;;;;;;;;;;;4994876;28;20022;-85
2023/05/03 17:32:43;;;;;;;;;;;;;;;;;;5003840;28;19925;-83
2023/05/03 17:35:29;;;;;;;;;;;;;;;;;;5003910;28;19925;-84
2023/05/03 17:38:16;;;;;;;;;;;;;;;;;;5001817;28;20396;-83
2023/05/03 17:41:03;;;;;;;;;;;;;;;;;;4995332;28;19917;-82
2023/05/03 17:43:49;;;;;;;;;;;;;;;;;;4988378;28;19918;-83
2023/05/03 17:46:35;;;;;;;;;;;;;;;;;;5007722;28;19932;-83
2023/05/03 17:49:22;;;;;;;;;;;;;;;;;;4982202;28;20407;-81
2023/05/03 17:52:09;;;;;;;;;;;;;;;;;;5004864;28;19922;-81
2023/05/03 17:54:56;;;;;;;;;;;;;;;;;;5007798;28;19959;-81
2023/05/03 17:57:43;;;;;;;;;;;;;;;;;;4996194;28;19925;-82
2023/05/03 18:00:30;;;;;;;;;;;;;;;;;;4998235;28;19922;-81
2023/05/03 18:03:16;;;;;;;;;;;;;;;;;;4994558;28;20742;-81
2023/05/03 18:06:03;;;;;;;;;;;;;;;;;;4997748;28;19917;-81
2023/05/03 18:08:50;;;;;;;;;;;;;;;;;;5003121;28;20427;-81
2023/05/03 18:11:39;;;;;;;;;;;;;;;;;;5004691;28;20012;-82
2023/05/03 18:14:26;;;;;;;;;;;;;;;;;;5005757;28;19917;-81
2023/05/03 18:17:12;;;;;;;;;;;;;;;;;;4994222;28;19925;-81
2023/05/03 18:19:59;;;;;;;;;;;;;;;;;;5012575;28;20492;-82
2023/05/03 18:22:46;;;;;;;;;;;;;;;;;;5003554;28;19918;-81
2023/05/03 18:25:32;;;;;;;;;;;;;;;;;;5002667;28;19913;-82
2023/05/03 18:28:19;;;;;;;;;;;;;;;;;;5000641;28;19918;-83
2023/05/03 18:31:06;;;;;;;;;;;;;;;;;;5003346;28;19922;-81
2023/05/03 18:33:52;;;;;;;;;;;;;;;;;;5003601;28;19913;-81
2023/05/03 18:36:39;;;;;;;;;;;;;;;;;;5003249;28;19956;-80
2023/05/03 18:39:26;;;;;;;;;;;;;;;;;;5000707;28;19983;-82
2023/05/03 18:42:14;;;;;;;;;;;;;;;;;;5005081;28;19918;-84
2023/05/03 18:45:00;;;;;;;;;;;;;;;;;;5004391;28;19940;-82
2023/05/03 18:47:47;;;;;;;;;;;;;;;;;;5002055;28;19921;-82
2023/05/03 18:50:33;;;;;;;;;;;;;;;;;;5001396;28;19924;-82
2023/05/03 18:53:20;;;;;;;;;;;;;;;;;;5001236;28;19913;-82
2023/05/03 18:56:06;;;;;;;;;;;;;;;;;;4988261;28;20398;-81
2023/05/03 18:58:53;;;;;;;;;;;;;;;;;;5002157;28;20567;-82